ADDS METAR Data INFO
IDs: Format: Raw Decoded Include TAF

Data at: 1221 UTC 20 May 2018

KSUA 201147Z 13010G18KT 3SM RA BKN012 BKN025 OVC040 24/23 A3009

KSUA 201126Z 2012/2112 13010KT P6SM -RA VCSH SCT010 BKN035 OVC070
  TEMPO 2012/2016 3SM SHRA BKN010 OVC025
  FM202300 13005KT P6SM SCT025 BKN100